Time;durP1;ratioP1;P1;durP2;ratioP2;P2;SDS_P1;SDS_P2;PMS_P1;PMS_P2;Temp;Humidity;BMP_temperature;BMP_pressure;BME280_temperature;BME280_humidity;BME280_pressure;Samples;Min_cycle;Max_cycle;Signal;HPM_P1;HPM_P2
2021/12/15 00:01:20;;;;;;;91.30;42.90;;;;;;;-2.42;79.14;100010.58;103174;1315;98006;-70
2021/12/15 00:03:48;;;;;;;99.40;44.40;;;;;;;-2.38;79.23;100012.46;103145;1315;111937;-70
2021/12/15 00:06:18;;;;;;;97.80;43.20;;;;;;;-2.35;79.30;100010.71;103161;1316;97918;-72
2021/12/15 00:08:56;;;;;;;94.20;43.10;;;;;;;-2.31;79.02;100010.52;103214;1315;106734;-71
2021/12/15 00:11:32;;;;;;;96.20;43.70;;;;;;;-2.29;79.11;100011.73;103122;1316;97906;-70
2021/12/15 00:14:05;;;;;;;94.10;43.30;;;;;;;-2.27;79.20;100016.08;103197;1316;95915;-70
2021/12/15 00:16:33;;;;;;;96.50;42.00;;;;;;;-2.26;79.04;100020.23;103182;1319;111478;-71
2021/12/15 00:19:05;;;;;;;87.00;42.20;;;;;;;-2.22;79.26;100021.77;103261;1316;98011;-71
2021/12/15 00:21:38;;;;;;;87.00;41.50;;;;;;;-2.17;79.36;100029.39;103150;1315;107902;-71
2021/12/15 00:24:12;;;;;;;88.80;39.40;;;;;;;-2.11;79.20;100034.05;103211;1316;97898;-71
2021/12/15 00:26:43;;;;;;;77.50;36.60;;;;;;;-2.05;79.59;100029.69;103196;1315;97902;-70
2021/12/15 00:29:10;;;;;;;83.00;39.30;;;;;;;-2.01;79.30;100030.35;103032;1317;111565;-70
2021/12/15 00:31:39;;;;;;;90.50;42.40;;;;;;;-1.98;79.17;100035.03;103186;1309;97936;-70
2021/12/15 00:34:14;;;;;;;99.20;41.60;;;;;;;-1.93;79.47;100033.44;103160;1315;106921;-72
2021/12/15 00:36:45;;;;;;;94.60;40.60;;;;;;;-1.89;79.38;100029.23;103078;1315;97889;-71
2021/12/15 00:39:20;;;;;;;83.40;41.90;;;;;;;-1.88;79.00;100025.07;103148;1316;97924;-71
2021/12/15 00:41:52;;;;;;;91.30;41.50;;;;;;;-1.84;79.17;100023.65;103187;1315;110099;-70
2021/12/15 00:44:20;;;;;;;90.20;41.70;;;;;;;-1.82;79.27;100027.27;103182;1316;97814;-72
2021/12/15 00:46:54;;;;;;;88.90;41.50;;;;;;;-1.79;79.26;100027.26;103122;1316;107807;-70
2021/12/15 00:49:26;;;;;;;83.80;37.80;;;;;;;-1.77;79.20;100029.16;103144;1315;97869;-71
2021/12/15 00:51:57;;;;;;;85.90;38.80;;;;;;;-1.81;79.23;100027.79;103220;1316;97985;-70
2021/12/15 00:54:27;;;;;;;92.00;43.90;;;;;;;-1.82;79.26;100030.92;103174;1315;111433;-71
2021/12/15 00:56:58;;;;;;;85.00;38.90;;;;;;;-1.81;79.21;100035.09;103074;1316;99064;-72
2021/12/15 00:59:30;;;;;;;91.30;42.00;;;;;;;-1.81;79.33;100038.05;103149;1316;107710;-71
2021/12/15 01:02:03;;;;;;;95.70;43.00;;;;;;;-1.83;79.22;100034.07;103165;1316;97863;-72
2021/12/15 01:04:34;;;;;;;91.00;43.60;;;;;;;-1.84;79.21;100040.00;103165;1315;95291;-71
2021/12/15 01:07:10;;;;;;;89.80;42.30;;;;;;;-1.84;79.06;100039.13;103144;1315;110064;-72
2021/12/15 01:09:52;;;;;;;91.30;41.80;;;;;;;-1.81;79.23;100042.39;103156;1315;98589;-70
2021/12/15 01:20:54;;;;;;;94.80;40.90;;;;;;;-1.74;79.30;100030.01;103183;1315;113160;-70
2021/12/15 01:23:28;;;;;;;100.00;43.40;;;;;;;-1.71;79.13;100024.42;103195;1315;95208;-71
2021/12/15 01:26:02;;;;;;;;;;;;;;;-1.69;79.10;100016.41;103182;1315;107836;-72
2021/12/15 01:28:30;;;;;;;82.20;36.40;;;;;;;-1.68;79.52;100008.41;103098;1315;98106;-72
2021/12/15 01:31:05;;;;;;;92.70;41.00;;;;;;;-1.66;79.48;100011.54;103155;1316;95193;-72
2021/12/15 01:33:38;;;;;;;100.80;44.50;;;;;;;-1.65;79.36;100012.73;103147;1316;112394;-71
2021/12/15 01:36:08;;;;;;;97.40;45.40;;;;;;;-1.66;79.02;100012.56;103217;1315;97863;-73
2021/12/15 01:38:42;;;;;;;96.70;41.10;;;;;;;-1.65;79.41;100017.25;103167;1316;107755;-71
2021/12/15 01:41:20;;;;;;;100.90;43.40;;;;;;;-1.61;79.31;100013.39;103196;1315;97937;-70
2021/12/15 01:46:54;;;;;;;100.50;44.00;;;;;;;-1.58;79.22;100012.85;103097;1315;111576;-70
2021/12/15 01:49:45;;;;;;;99.50;42.80;;;;;;;-1.56;79.58;100010.73;103155;1315;97883;-71
2021/12/15 01:52:35;;;;;;;102.00;47.80;;;;;;;-1.52;79.51;100009.67;103191;1317;107855;-71
2021/12/15 01:55:15;;;;;;;104.40;42.10;;;;;;;-1.49;79.51;100007.91;103166;1315;97950;-71
2021/12/15 01:57:45;;;;;;;96.40;44.20;;;;;;;-1.46;79.57;100005.96;103214;1315;97857;-72
2021/12/15 02:00:32;;;;;;;100.10;45.20;;;;;;;-1.42;79.49;100009.23;103203;1316;112702;-70
2021/12/15 02:03:00;;;;;;;108.80;49.00;;;;;;;-1.37;79.58;100005.71;103049;1320;98602;-73
2021/12/15 02:05:34;;;;;;;101.80;46.40;;;;;;;-1.32;79.85;100010.20;102984;1322;108800;-73
2021/12/15 02:08:07;;;;;;;99.70;43.10;;;;;;;-1.29;79.52;100008.43;103148;1315;97911;-72
2021/12/15 02:10:39;;;;;;;98.30;44.70;;;;;;;-1.27;79.58;100006.85;103200;1315;98015;-72
2021/12/15 02:13:14;;;;;;;95.60;44.30;;;;;;;-1.25;79.47;100003.88;103210;1315;112203;-72
2021/12/15 02:15:57;;;;;;;107.70;46.00;;;;;;;-1.24;79.66;99996.04;103062;1323;97785;-72
2021/12/15 02:18:32;;;;;;;97.60;46.90;;;;;;;-1.23;79.85;99994.63;103075;1315;107976;-72
2021/12/15 02:21:09;;;;;;;101.00;46.80;;;;;;;-1.19;79.81;100000.16;103051;1315;97905;-71
2021/12/15 02:23:45;;;;;;;98.50;48.80;;;;;;;-1.14;79.91;100011.43;103168;1315;97906;-72
2021/12/15 02:26:22;;;;;;;99.80;45.50;;;;;;;-1.07;79.75;100020.25;103152;1316;112080;-71
2021/12/15 02:29:01;;;;;;;109.40;47.50;;;;;;;-1.02;79.83;100010.09;103192;1315;95188;-70
2021/12/15 02:37:20;;;;;;;111.50;49.20;;;;;;;-0.88;79.64;99996.20;103165;1316;97921;-71
2021/12/15 02:40:09;;;;;;;116.20;49.00;;;;;;;-0.86;79.69;99996.35;103114;1314;111448;-72
2021/12/15 02:42:45;;;;;;;105.70;45.40;;;;;;;-0.83;79.67;99999.11;103069;1315;97978;-71
2021/12/15 02:45:21;;;;;;;111.10;49.90;;;;;;;-0.81;79.79;100003.08;103056;1317;107861;-71
2021/12/15 02:47:49;;;;;;;120.00;51.40;;;;;;;-0.79;79.60;100009.67;102905;1315;98001;-71
2021/12/15 02:50:28;;;;;;;103.30;43.30;;;;;;;-0.78;79.57;100012.45;103168;1316;97903;-71
2021/12/15 02:53:03;;;;;;;105.70;46.60;;;;;;;-0.79;79.57;100014.02;103125;1317;110501;-71
2021/12/15 02:55:31;;;;;;;97.10;44.80;;;;;;;-0.84;79.69;100012.88;103155;1315;95235;-72
2021/12/15 02:58:03;;;;;;;100.30;44.90;;;;;;;-0.90;79.72;100014.14;103090;1315;107870;-71
2021/12/15 03:00:50;;;;;;;110.30;53.60;;;;;;;-0.93;79.66;100015.23;103043;1315;97915;-71
2021/12/15 03:06:03;;;;;;;108.90;51.10;;;;;;;-0.99;79.77;100021.38;103147;1316;111595;-71
2021/12/15 03:16:58;;;;;;;114.90;50.30;;;;;;;-0.97;79.97;100032.52;103133;1315;97975;-71
2021/12/15 03:19:29;;;;;;;108.70;50.80;;;;;;;-0.98;79.60;100033.73;103135;1315;111588;-70
2021/12/15 03:21:59;;;;;;;101.70;49.10;;;;;;;-0.95;80.01;100031.27;103194;1315;96526;-70
2021/12/15 03:24:30;;;;;;;111.60;50.60;;;;;;;-0.90;79.86;100038.88;103094;1315;107903;-70
2021/12/15 03:27:07;;;;;;;112.70;51.20;;;;;;;-0.83;80.01;100035.33;103057;1315;97959;-71
2021/12/15 03:35:34;;;;;;;112.30;48.10;;;;;;;-0.66;80.07;100042.63;103053;1316;97901;-72
2021/12/15 03:38:05;;;;;;;107.50;47.20;;;;;;;-0.60;79.99;100039.78;103123;1315;106746;-72
2021/12/15 03:40:42;;;;;;;110.10;48.00;;;;;;;-0.55;80.13;100036.08;103090;1315;95320;-71
2021/12/15 03:43:15;;;;;;;99.40;46.50;;;;;;;-0.52;79.90;100030.11;103054;1316;97121;-72
2021/12/15 03:46:02;;;;;;;100.30;47.80;;;;;;;-0.53;79.77;100029.59;103175;1315;112541;-72
2021/12/15 03:48:38;;;;;;;103.40;47.10;;;;;;;-0.55;79.86;100033.63;102933;1315;97898;-72
2021/12/15 03:51:14;;;;;;;108.20;47.90;;;;;;;-0.58;79.83;100026.33;103090;1315;107950;-72
2021/12/15 03:53:43;;;;;;;100.20;48.90;;;;;;;-0.64;79.85;100036.35;103114;1315;98101;-72
2021/12/15 03:56:15;;;;;;;100.90;48.90;;;;;;;-0.62;80.02;100033.17;103096;1318;97998;-71
2021/12/15 03:58:48;;;;;;;97.90;45.10;;;;;;;-0.58;80.09;100033.83;103126;1316;111502;-71
2021/12/15 04:01:23;;;;;;;97.40;46.90;;;;;;;-0.56;80.02;100033.98;103101;1315;98690;-72
2021/12/15 04:03:56;;;;;;;98.70;46.60;;;;;;;-0.58;79.96;100034.35;103115;1316;107816;-71
2021/12/15 04:06:30;;;;;;;105.10;51.10;;;;;;;-0.56;79.95;100035.55;103194;1316;97846;-72
2021/12/15 04:08:59;;;;;;;101.10;48.50;;;;;;;-0.54;80.04;100034.66;103121;1315;95956;-71
2021/12/15 04:11:34;;;;;;;109.80;51.10;;;;;;;-0.52;80.00;100029.77;103156;1316;111581;-71
2021/12/15 04:14:11;;;;;;;105.10;51.50;;;;;;;-0.49;80.01;100028.85;103228;1316;96063;-72
2021/12/15 04:16:57;;;;;;;106.60;47.90;;;;;;;-0.42;80.12;100029.98;103106;1316;107951;-71
2021/12/15 04:19:30;;;;;;;98.40;47.30;;;;;;;-0.34;80.32;100033.73;103049;1320;97898;-71
2021/12/15 04:21:58;;;;;;;116.00;49.60;;;;;;;-0.26;80.42;100041.48;103154;1315;97834;-73
2021/12/15 04:24:29;;;;;;;102.60;44.90;;;;;;;-0.20;80.47;100035.81;103062;1316;111565;-72
2021/12/15 04:26:59;;;;;;;108.90;47.70;;;;;;;-0.13;80.48;100042.70;103131;1316;97885;-72
2021/12/15 04:29:30;;;;;;;103.50;48.40;;;;;;;-0.06;80.44;100042.10;103157;1315;107867;-73
2021/12/15 04:32:15;;;;;;;113.50;48.60;;;;;;;-0.01;80.44;100043.95;103157;1319;98530;-72
2021/12/15 04:34:43;;;;;;;103.90;47.70;;;;;;;0.04;80.37;100048.73;103107;1315;97894;-72
2021/12/15 04:37:11;;;;;;;114.60;51.90;;;;;;;0.07;80.34;100053.77;103183;1315;112353;-72
2021/12/15 04:39:38;;;;;;;106.30;49.50;;;;;;;0.11;80.33;100054.59;103216;1316;97871;-74
2021/12/15 04:42:07;;;;;;;96.10;45.70;;;;;;;0.12;80.25;100044.27;103127;1315;106287;-71
2021/12/15 04:44:35;;;;;;;101.40;48.10;;;;;;;0.02;80.18;100042.33;103121;1315;97875;-71
2021/12/15 04:47:10;;;;;;;105.00;49.70;;;;;;;-0.06;80.15;100046.09;103235;1315;97026;-70
2021/12/15 04:49:50;;;;;;;103.50;47.50;;;;;;;-0.06;80.04;100044.71;103202;1315;111542;-71
2021/12/15 04:52:27;;;;;;;102.10;47.40;;;;;;;-0.07;80.25;100044.72;103047;1315;96687;-72
2021/12/15 04:54:59;;;;;;;103.00;47.50;;;;;;;-0.04;80.35;100046.59;103156;1316;107904;-70
2021/12/15 04:57:32;;;;;;;103.90;50.40;;;;;;;-0.01;80.29;100050.73;103168;1315;97884;-71
2021/12/15 05:00:00;;;;;;;109.30;50.90;;;;;;;0.01;80.17;100054.91;103191;1315;97964;-70
2021/12/15 05:02:28;;;;;;;112.30;52.50;;;;;;;0.04;80.42;100052.77;103205;1315;111633;-71
2021/12/15 05:05:05;;;;;;;120.00;54.40;;;;;;;0.08;80.34;100052.70;103075;1317;97928;-70
2021/12/15 05:07:33;;;;;;;101.70;46.00;;;;;;;0.11;80.40;100056.33;103113;1315;107746;-71
2021/12/15 05:10:08;;;;;;;103.80;48.50;;;;;;;0.12;80.19;100058.40;103100;1315;97998;-70
2021/12/15 05:12:38;;;;;;;105.80;49.20;;;;;;;0.08;80.28;100051.66;103177;1316;95933;-71
2021/12/15 05:15:11;;;;;;;103.00;45.30;;;;;;;-0.03;80.17;100050.06;103090;1316;111411;-71
2021/12/15 05:17:39;;;;;;;100.70;44.20;;;;;;;-0.07;80.34;100051.70;103119;1315;97754;-71
2021/12/15 05:20:10;;;;;;;114.70;52.70;;;;;;;-0.13;80.37;100051.77;103022;1320;107630;-70
2021/12/15 05:22:42;;;;;;;111.20;50.10;;;;;;;-0.23;80.47;100051.02;103059;1315;97997;-71
2021/12/15 05:25:11;;;;;;;99.90;44.40;;;;;;;-0.30;80.44;100053.20;103025;1315;98129;-71
2021/12/15 05:27:41;;;;;;;108.50;46.40;;;;;;;-0.30;80.48;100048.31;103096;1317;112665;-71
2021/12/15 05:30:14;;;;;;;128.20;59.10;;;;;;;-0.25;80.50;100053.85;103181;1315;95310;-70
2021/12/15 05:32:44;;;;;;;111.10;48.60;;;;;;;-0.23;80.42;100060.97;103134;1315;107897;-70
2021/12/15 05:35:20;;;;;;;123.70;55.40;;;;;;;-0.23;80.55;100063.05;103081;1315;98001;-73
2021/12/15 05:37:55;;;;;;;125.30;55.10;;;;;;;-0.23;80.52;100068.64;103127;1316;97047;-72
2021/12/15 05:40:28;;;;;;;127.30;54.20;;;;;;;-0.21;80.56;100071.23;103084;1315;111416;-71
2021/12/15 05:43:01;;;;;;;134.20;54.60;;;;;;;-0.17;80.60;100072.73;103067;1315;97906;-71
2021/12/15 05:45:35;;;;;;;102.70;45.30;;;;;;;-0.11;80.75;100071.61;103067;1316;107807;-72
2021/12/15 05:48:17;;;;;;;125.70;51.40;;;;;;;-0.05;80.76;100072.77;103134;1315;98081;-71
2021/12/15 05:50:49;;;;;;;119.50;51.70;;;;;;;0.02;80.75;100071.09;103162;1316;97081;-71
2021/12/15 05:53:17;;;;;;;121.70;48.90;;;;;;;0.06;80.73;100069.11;103172;1316;111207;-71
2021/12/15 05:55:45;;;;;;;118.30;51.40;;;;;;;0.10;80.65;100076.40;103077;1316;99434;-71
2021/12/15 05:58:14;;;;;;;119.20;48.70;;;;;;;0.15;80.67;100078.62;103107;1316;107803;-71
2021/12/15 06:00:45;;;;;;;112.40;47.90;;;;;;;0.21;80.74;100075.39;103097;1316;97917;-71
2021/12/15 06:03:15;;;;;;;122.00;48.70;;;;;;;0.27;80.76;100076.86;103197;1316;97934;-71
2021/12/15 06:05:45;;;;;;;108.00;45.70;;;;;;;0.31;80.68;100074.36;103055;1315;111589;-71
2021/12/15 06:08:13;;;;;;;129.80;50.90;;;;;;;0.30;80.49;100074.73;103036;1315;97857;-71
2021/12/15 06:10:46;;;;;;;122.30;51.20;;;;;;;0.25;80.50;100076.20;103035;1316;107758;-72
2021/12/15 06:13:13;;;;;;;127.40;51.90;;;;;;;0.16;80.39;100082.59;103149;1315;97944;-73
2021/12/15 06:15:48;;;;;;;142.80;57.20;;;;;;;0.10;80.49;100085.13;103123;1316;95190;-71
2021/12/15 06:18:19;;;;;;;129.10;55.90;;;;;;;0.08;80.50;100086.72;103079;1315;111581;-72
2021/12/15 06:20:55;;;;;;;;;;;;;;;0.07;80.69;100091.43;103050;1315;96500;-71
2021/12/15 06:23:28;;;;;;;135.70;56.20;;;;;;;0.06;80.70;100090.92;103043;1315;108408;-71
2021/12/15 06:26:01;;;;;;;135.60;55.60;;;;;;;0.01;80.67;100091.86;103054;1315;97874;-72
2021/12/15 06:28:37;;;;;;;129.50;49.90;;;;;;;-0.04;80.70;100091.05;103122;1317;96032;-72
2021/12/15 06:31:13;;;;;;;138.90;54.60;;;;;;;-0.05;80.94;100091.77;103130;1316;111510;-71
2021/12/15 06:33:45;;;;;;;130.00;53.70;;;;;;;-0.05;80.84;100099.27;103056;1317;95400;-72
2021/12/15 06:36:21;;;;;;;124.00;50.50;;;;;;;-0.02;80.91;100104.64;103079;1315;107847;-72
2021/12/15 06:38:57;;;;;;;137.20;55.90;;;;;;;-0.02;80.83;100106.21;103107;1317;96410;-72
2021/12/15 06:41:25;;;;;;;124.80;52.10;;;;;;;-0.02;80.80;100109.17;103030;1317;96333;-72
2021/12/15 06:43:59;;;;;;;130.00;49.50;;;;;;;-0.04;80.91;100112.33;103186;1315;111485;-71
2021/12/15 06:58:23;;;;;;;159.30;64.60;;;;;;;-0.19;81.13;100125.41;103131;1319;111449;-72
2021/12/15 07:00:27;;;;;;;153.40;62.40;;;;;;;-0.18;80.95;100124.87;103115;1315;97924;-71
2021/12/15 07:03:01;;;;;;;154.40;63.20;;;;;;;-0.16;81.04;100127.47;103204;1316;107857;-70
2021/12/15 07:05:33;;;;;;;147.50;60.40;;;;;;;-0.12;81.04;100130.74;103181;1315;98484;-70
2021/12/15 07:08:08;;;;;;;152.90;59.40;;;;;;;-0.08;81.12;100131.91;103203;1315;97929;-72
2021/12/15 07:10:41;;;;;;;153.10;63.60;;;;;;;-0.05;81.14;100136.06;103144;1316;111489;-71
2021/12/15 07:13:10;;;;;;;143.40;55.40;;;;;;;-0.01;81.19;100134.98;103263;1315;98491;-70
2021/12/15 07:15:40;;;;;;;153.00;63.00;;;;;;;0.03;81.12;100139.80;103115;1316;107757;-71
2021/12/15 07:18:14;;;;;;;148.00;59.00;;;;;;;0.08;81.37;100142.88;103248;1316;97989;-71
2021/12/15 07:20:47;;;;;;;150.00;58.10;;;;;;;0.15;81.25;100137.73;103164;1315;97837;-71
2021/12/15 07:23:22;;;;;;;143.00;56.30;;;;;;;0.22;81.33;100137.48;103220;1316;111468;-71
2021/12/15 07:25:55;;;;;;;131.70;52.70;;;;;;;0.29;81.37;100137.20;103173;1316;96361;-72
2021/12/15 07:28:24;;;;;;;128.10;51.30;;;;;;;0.37;81.36;100134.14;103181;1316;107837;-71
2021/12/15 07:30:59;;;;;;;127.90;47.40;;;;;;;0.44;81.44;100141.36;103132;1315;98123;-72
2021/12/15 07:33:26;;;;;;;126.30;49.60;;;;;;;0.52;81.47;100142.84;103127;1316;97984;-72
2021/12/15 07:35:56;;;;;;;119.60;45.60;;;;;;;0.60;81.40;100143.23;103193;1315;111393;-70
2021/12/15 07:38:28;;;;;;;119.30;50.40;;;;;;;0.67;81.41;100146.98;103143;1315;96711;-71
2021/12/15 07:41:03;;;;;;;131.20;48.30;;;;;;;0.74;81.59;100153.51;103053;1316;107853;-73
2021/12/15 07:43:31;;;;;;;111.90;44.90;;;;;;;0.81;81.40;100161.77;103047;1315;97902;-71
2021/12/15 07:46:05;;;;;;;112.80;45.50;;;;;;;0.88;81.55;100159.08;103055;1316;98013;-71
2021/12/15 07:48:40;;;;;;;116.00;47.40;;;;;;;0.95;81.56;100161.92;103074;1315;111628;-71
2021/12/15 07:51:13;;;;;;;118.50;46.80;;;;;;;1.02;81.76;100168.80;103198;1316;97904;-70
2021/12/15 07:53:46;;;;;;;105.90;43.30;;;;;;;1.10;81.44;100174.64;103054;1316;107851;-70
2021/12/15 07:56:19;;;;;;;108.50;43.30;;;;;;;1.15;81.55;100178.20;102999;1316;98326;-70
2021/12/15 07:58:46;;;;;;;109.50;45.10;;;;;;;1.21;81.67;100183.70;103120;1315;97956;-72
2021/12/15 08:01:18;;;;;;;110.20;46.00;;;;;;;1.26;81.57;100186.76;103175;1315;112691;-73
2021/12/15 08:03:51;;;;;;;113.10;47.50;;;;;;;1.30;81.48;100193.51;103177;1317;98535;-71
2021/12/15 08:06:26;;;;;;;113.50;47.80;;;;;;;1.35;81.62;100199.38;103148;1315;107850;-72
2021/12/15 08:08:59;;;;;;;114.10;47.40;;;;;;;1.40;81.73;100195.11;103231;1315;98698;-71
2021/12/15 08:11:26;;;;;;;117.40;52.00;;;;;;;1.45;81.51;100195.20;103185;1315;97921;-71
2021/12/15 08:13:57;;;;;;;108.90;47.00;;;;;;;1.48;81.62;100202.48;103054;1315;111591;-72
2021/12/15 08:16:26;;;;;;;112.20;51.00;;;;;;;1.52;81.34;100202.77;103148;1315;97762;-71
2021/12/15 08:18:53;;;;;;;107.00;48.80;;;;;;;1.57;81.48;100205.48;103134;1320;108982;-71
2021/12/15 08:21:29;;;;;;;110.20;48.50;;;;;;;1.62;81.56;100209.42;103139;1315;98008;-72
2021/12/15 08:23:57;;;;;;;120.60;53.70;;;;;;;1.67;81.43;100211.61;103093;1315;97988;-71
2021/12/15 08:26:26;;;;;;;111.50;51.00;;;;;;;1.70;81.73;100214.86;103055;1316;111442;-71
2021/12/15 08:28:57;;;;;;;109.00;49.00;;;;;;;1.73;81.48;100214.81;102923;1319;97988;-71
2021/12/15 08:31:25;;;;;;;120.90;52.40;;;;;;;1.76;81.42;100210.74;103023;1316;107657;-72
2021/12/15 08:33:53;;;;;;;114.20;47.50;;;;;;;1.79;81.38;100209.98;103024;1315;97922;-72
2021/12/15 08:36:25;;;;;;;116.40;48.60;;;;;;;1.82;81.68;100214.48;103228;1315;97074;-71
2021/12/15 08:38:53;;;;;;;106.70;47.70;;;;;;;1.83;81.76;100217.96;103069;1316;111873;-73
2021/12/15 08:41:30;;;;;;;107.20;45.80;;;;;;;1.85;81.80;100221.95;103241;1316;97899;-72
2021/12/15 08:44:06;;;;;;;120.40;51.00;;;;;;;1.88;81.78;100221.02;103152;1316;108408;-72
2021/12/15 08:46:39;;;;;;;118.40;48.80;;;;;;;1.89;81.61;100215.58;103197;1316;95994;-73
2021/12/15 08:49:14;;;;;;;115.20;48.40;;;;;;;1.91;81.85;100213.97;103108;1315;97902;-73
2021/12/15 08:51:47;;;;;;;113.90;47.90;;;;;;;1.94;81.65;100219.51;103134;1316;111417;-73
2021/12/15 08:54:20;;;;;;;119.30;47.50;;;;;;;1.96;81.87;100218.77;103143;1315;97900;-74
2021/12/15 08:56:52;;;;;;;117.60;53.00;;;;;;;1.98;81.55;100219.27;103156;1315;107802;-73
2021/12/15 08:59:20;;;;;;;113.80;47.20;;;;;;;1.97;81.44;100219.45;103029;1317;98026;-72
2021/12/15 09:01:53;;;;;;;122.10;50.70;;;;;;;1.98;81.34;100225.04;103192;1315;98088;-73
2021/12/15 09:04:25;;;;;;;126.20;53.30;;;;;;;2.00;81.71;100224.30;103217;1315;110723;-71
2021/12/15 09:07:01;;;;;;;129.50;53.10;;;;;;;2.01;81.70;100222.35;103132;1316;97892;-71
2021/12/15 09:09:30;;;;;;;126.40;54.70;;;;;;;2.01;81.33;100221.14;103199;1316;107886;-71
2021/12/15 09:11:59;;;;;;;119.50;53.90;;;;;;;2.02;81.75;100221.46;103186;1316;95738;-71
2021/12/15 09:14:27;;;;;;;121.20;50.80;;;;;;;2.03;81.50;100220.73;103088;1316;97901;-72
2021/12/15 09:16:59;;;;;;;125.70;55.40;;;;;;;2.03;81.41;100218.29;103090;1315;111435;-70
2021/12/15 09:19:28;;;;;;;117.00;53.90;;;;;;;2.03;81.52;100217.59;103123;1315;97987;-70
2021/12/15 09:22:00;;;;;;;127.30;50.70;;;;;;;2.05;81.53;100220.00;103118;1316;107644;-70
2021/12/15 09:24:32;;;;;;;111.30;42.10;;;;;;;2.05;81.35;100219.64;103161;1316;97839;-70
2021/12/15 09:27:00;;;;;;;138.20;52.60;;;;;;;2.05;81.30;100217.02;103119;1316;95291;-70
2021/12/15 09:29:28;;;;;;;140.70;55.30;;;;;;;2.08;81.32;100217.14;103102;1315;111531;-71
2021/12/15 09:31:56;;;;;;;130.50;51.90;;;;;;;2.08;81.59;100215.04;103202;1316;95627;-73
2021/12/15 09:34:25;;;;;;;143.70;54.80;;;;;;;2.13;81.45;100219.33;103185;1316;106372;-71
2021/12/15 09:36:58;;;;;;;140.80;59.10;;;;;;;2.13;81.67;100220.55;103034;1316;97973;-71
2021/12/15 09:39:26;;;;;;;136.00;53.10;;;;;;;2.12;81.37;100215.30;103074;1316;97946;-71
2021/12/15 09:42:18;;;;;;;144.40;55.80;;;;;;;2.14;81.46;100212.67;103099;1316;109423;-69
2021/12/15 09:44:53;;;;;;;130.10;54.20;;;;;;;2.15;81.61;100210.18;103023;1316;98002;-72
2021/12/15 09:47:40;;;;;;;142.30;55.00;;;;;;;2.18;81.51;100206.63;102972;1316;107875;-71
2021/12/15 10:18:10;;;;;;;133.90;52.50;;;;;;;2.31;81.46;100176.09;103070;1316;97869;-72
2021/12/15 10:20:42;;;;;;;134.90;56.20;;;;;;;2.33;81.70;100182.88;103039;1316;96006;-71
2021/12/15 10:23:17;;;;;;;125.00;55.90;;;;;;;2.33;81.47;100180.59;103128;1317;111496;-73
2021/12/15 10:25:49;;;;;;;157.20;57.60;;;;;;;2.34;81.28;100182.33;103099;1316;96598;-71
2021/12/15 10:28:24;;;;;;;131.80;52.40;;;;;;;2.34;81.28;100177.77;103104;1316;107646;-70
2021/12/15 10:31:01;;;;;;;134.10;52.70;;;;;;;2.35;81.45;100177.41;103159;1316;97856;-71
2021/12/15 10:33:41;;;;;;;143.10;55.40;;;;;;;2.35;81.17;100176.36;102998;1316;97992;-71
2021/12/15 10:36:15;;;;;;;126.20;51.90;;;;;;;2.35;81.42;100180.56;103058;1316;111529;-70
2021/12/15 10:38:53;;;;;;;135.70;52.70;;;;;;;2.34;81.22;100175.67;102918;1316;97889;-70
2021/12/15 10:41:34;;;;;;;143.60;55.60;;;;;;;2.34;81.27;100181.96;102906;1320;106952;-71
2021/12/15 10:44:08;;;;;;;152.40;56.20;;;;;;;2.35;81.33;100180.36;103027;1316;97897;-72
2021/12/15 10:46:38;;;;;;;;;;;;;;;2.35;81.41;100179.85;102927;1320;251686;-72
2021/12/15 10:49:20;;;;;;;139.10;55.40;;;;;;;2.35;81.21;100181.43;102954;1316;111513;-71
2021/12/15 10:51:59;;;;;;;135.00;53.60;;;;;;;2.38;81.32;100170.16;103045;1321;97949;-71
2021/12/15 10:54:54;;;;;;;143.00;56.70;;;;;;;2.39;81.24;100166.99;103156;1316;107663;-71
2021/12/15 10:57:31;;;;;;;145.30;54.90;;;;;;;2.42;81.54;100159.42;103059;1316;95300;-70
2021/12/15 11:00:00;;;;;;;137.40;55.20;;;;;;;2.44;81.37;100161.98;103084;1317;95302;-71
2021/12/15 11:02:43;;;;;;;133.40;53.50;;;;;;;2.45;81.36;100156.36;103061;1316;111341;-70
2021/12/15 11:05:21;;;;;;;132.70;55.10;;;;;;;2.44;81.36;100153.92;103091;1316;97875;-70
2021/12/15 11:07:58;;;;;;;141.90;56.30;;;;;;;2.45;81.68;100152.14;103044;1317;107922;-71
2021/12/15 11:10:34;;;;;;;138.80;55.60;;;;;;;2.48;81.77;100152.96;103051;1316;97880;-70
2021/12/15 11:13:12;;;;;;;132.00;56.30;;;;;;;2.50;81.31;100149.59;103137;1316;95907;-73
2021/12/15 11:15:51;;;;;;;127.60;51.70;;;;;;;2.54;81.32;100148.09;103137;1317;111508;-70
2021/12/15 11:18:28;;;;;;;128.90;56.00;;;;;;;2.58;81.34;100146.98;103045;1316;98034;-72
2021/12/15 11:21:01;;;;;;;119.00;50.90;;;;;;;2.62;81.35;100146.00;103115;1315;107682;-73
2021/12/15 11:23:35;;;;;;;116.40;50.90;;;;;;;2.66;81.43;100149.92;103085;1315;98015;-71
2021/12/15 11:26:12;;;;;;;127.60;54.10;;;;;;;2.69;81.65;100142.67;103125;1317;98182;-73
2021/12/15 11:28:49;;;;;;;108.90;49.00;;;;;;;2.74;81.45;100137.15;103082;1315;111472;-73
2021/12/15 11:31:31;;;;;;;125.90;53.00;;;;;;;2.76;81.44;100133.60;103105;1315;98021;-72
2021/12/15 11:34:07;;;;;;;119.00;52.30;;;;;;;2.78;81.39;100133.21;103042;1316;107673;-71
2021/12/15 11:36:44;;;;;;;122.90;52.10;;;;;;;2.80;81.07;100134.03;103032;1315;98082;-71
2021/12/15 11:39:24;;;;;;;124.80;55.70;;;;;;;2.82;81.37;100126.64;103069;1316;95387;-71
2021/12/15 11:41:56;;;;;;;136.90;56.20;;;;;;;2.86;81.25;100143.70;103072;1316;111496;-72
2021/12/15 11:44:30;;;;;;;147.20;58.80;;;;;;;2.89;81.56;100150.10;103099;1316;97889;-71
2021/12/15 11:47:08;;;;;;;137.50;59.60;;;;;;;2.90;81.12;100147.48;103062;1316;107834;-72
2021/12/15 11:49:44;;;;;;;149.10;63.70;;;;;;;2.90;81.41;100147.98;103195;1315;97966;-71
2021/12/15 11:52:14;;;;;;;139.00;61.50;;;;;;;2.91;81.13;100143.77;102919;1318;98295;-72
2021/12/15 11:54:51;;;;;;;119.50;49.80;;;;;;;2.94;81.33;100140.71;103060;1317;112136;-72
2021/12/15 11:57:27;;;;;;;122.20;52.50;;;;;;;2.94;81.33;100140.89;103033;1316;95280;-72
2021/12/15 11:59:59;;;;;;;125.00;55.90;;;;;;;2.93;81.33;100137.77;102894;1319;107961;-72
2021/12/15 12:02:36;;;;;;;126.80;53.50;;;;;;;2.93;81.42;100140.73;102983;1316;95303;-71
2021/12/15 12:05:04;;;;;;;134.20;55.00;;;;;;;2.94;81.31;100140.89;103016;1316;97845;-72
2021/12/15 12:07:58;;;;;;;128.00;53.90;;;;;;;2.95;81.32;100143.14;103028;1315;111446;-71
2021/12/15 12:10:31;;;;;;;127.10;55.10;;;;;;;2.94;81.58;100142.81;103115;1316;97145;-71
2021/12/15 12:13:10;;;;;;;127.30;54.00;;;;;;;2.94;81.61;100138.42;103084;1316;107806;-69
2021/12/15 12:15:43;;;;;;;128.70;53.80;;;;;;;2.94;81.42;100137.20;102992;1316;98022;-72
2021/12/15 12:18:17;;;;;;;128.90;55.40;;;;;;;2.93;81.38;100137.05;103058;1316;97896;-71
2021/12/15 12:20:55;;;;;;;134.20;54.00;;;;;;;2.93;81.63;100137.92;103088;1316;111468;-72
2021/12/15 12:23:30;;;;;;;112.90;49.30;;;;;;;2.92;81.49;100131.83;103002;1315;97845;-71
2021/12/15 12:26:06;;;;;;;127.50;54.30;;;;;;;2.91;81.50;100131.66;103063;1316;107461;-72
2021/12/15 12:28:42;;;;;;;123.60;52.80;;;;;;;2.90;81.66;100127.14;103101;1316;97982;-72
2021/12/15 12:31:16;;;;;;;125.40;53.70;;;;;;;2.92;81.76;100122.71;103134;1316;96445;-71
2021/12/15 12:33:47;;;;;;;130.90;57.90;;;;;;;2.92;81.44;100122.02;103052;1315;112040;-72
2021/12/15 12:36:38;;;;;;;136.70;53.40;;;;;;;2.93;81.41;100117.95;103059;1316;97926;-69
2021/12/15 12:39:12;;;;;;;127.10;53.20;;;;;;;2.96;81.63;100114.02;102974;1315;107824;-70